sensor_id;sensor_type;location;lat;lon;timestamp;P1;durP1;ratioP1;P2;durP2;ratioP2
54823;SDS011;40724;53.196;5.980;2023-01-16T00:00:55;6.25;;;3.42;;
54823;SDS011;40724;53.196;5.980;2023-01-16T00:03:21;5.38;;;2.90;;
54823;SDS011;40724;53.196;5.980;2023-01-16T00:05:47;5.50;;;3.47;;
54823;SDS011;40724;53.196;5.980;2023-01-16T00:08:14;5.53;;;3.90;;
54823;SDS011;40724;53.196;5.980;2023-01-16T00:10:40;6.60;;;3.45;;
54823;SDS011;40724;53.196;5.980;2023-01-16T00:13:06;5.22;;;2.92;;
54823;SDS011;40724;53.196;5.980;2023-01-16T00:15:32;4.93;;;2.55;;
54823;SDS011;40724;53.196;5.980;2023-01-16T00:17:58;4.03;;;2.28;;
54823;SDS011;40724;53.196;5.980;2023-01-16T00:20:25;4.15;;;2.53;;
54823;SDS011;40724;53.196;5.980;2023-01-16T00:22:51;6.18;;;2.58;;
54823;SDS011;40724;53.196;5.980;2023-01-16T00:25:17;4.70;;;2.38;;
54823;SDS011;40724;53.196;5.980;2023-01-16T00:27:43;4.50;;;2.65;;
54823;SDS011;40724;53.196;5.980;2023-01-16T00:30:09;4.72;;;2.53;;
54823;SDS011;40724;53.196;5.980;2023-01-16T00:32:35;6.90;;;2.65;;
54823;SDS011;40724;53.196;5.980;2023-01-16T00:35:02;5.25;;;3.20;;
54823;SDS011;40724;53.196;5.980;2023-01-16T00:37:28;7.40;;;3.53;;
54823;SDS011;40724;53.196;5.980;2023-01-16T00:39:54;8.57;;;4.15;;
54823;SDS011;40724;53.196;5.980;2023-01-16T00:42:20;8.00;;;3.60;;
54823;SDS011;40724;53.196;5.980;2023-01-16T00:44:46;10.32;;;4.55;;
54823;SDS011;40724;53.196;5.980;2023-01-16T00:47:13;6.93;;;4.05;;
54823;SDS011;40724;53.196;5.980;2023-01-16T00:49:39;7.10;;;4.20;;
54823;SDS011;40724;53.196;5.980;2023-01-16T00:52:05;6.53;;;3.92;;
54823;SDS011;40724;53.196;5.980;2023-01-16T00:54:31;6.50;;;4.47;;
54823;SDS011;40724;53.196;5.980;2023-01-16T00:56:57;8.60;;;3.92;;
54823;SDS011;40724;53.196;5.980;2023-01-16T00:59:23;7.05;;;4.40;;
54823;SDS011;40724;53.196;5.980;2023-01-16T01:01:49;8.00;;;4.80;;
54823;SDS011;40724;53.196;5.980;2023-01-16T01:04:15;6.95;;;4.15;;
54823;SDS011;40724;53.196;5.980;2023-01-16T01:06:42;6.80;;;4.82;;
54823;SDS011;40724;53.196;5.980;2023-01-16T01:09:08;5.80;;;4.22;;
54823;SDS011;40724;53.196;5.980;2023-01-16T01:11:34;7.50;;;3.90;;
54823;SDS011;40724;53.196;5.980;2023-01-16T01:14:00;8.40;;;4.50;;
54823;SDS011;40724;53.196;5.980;2023-01-16T01:16:26;8.07;;;4.57;;
54823;SDS011;40724;53.196;5.980;2023-01-16T01:18:53;8.95;;;4.60;;
54823;SDS011;40724;53.196;5.980;2023-01-16T01:21:19;8.23;;;4.78;;
54823;SDS011;40724;53.196;5.980;2023-01-16T01:23:45;8.98;;;5.90;;
54823;SDS011;40724;53.196;5.980;2023-01-16T01:26:12;7.88;;;4.80;;
54823;SDS011;40724;53.196;5.980;2023-01-16T01:28:38;7.45;;;4.75;;
54823;SDS011;40724;53.196;5.980;2023-01-16T01:31:05;9.38;;;4.93;;
54823;SDS011;40724;53.196;5.980;2023-01-16T01:33:32;8.73;;;4.70;;
54823;SDS011;40724;53.196;5.980;2023-01-16T01:35:58;8.90;;;4.78;;
54823;SDS011;40724;53.196;5.980;2023-01-16T01:38:24;9.38;;;5.25;;
54823;SDS011;40724;53.196;5.980;2023-01-16T01:40:50;10.48;;;5.00;;
54823;SDS011;40724;53.196;5.980;2023-01-16T01:43:16;8.23;;;5.00;;
54823;SDS011;40724;53.196;5.980;2023-01-16T01:45:45;8.68;;;4.63;;
54823;SDS011;40724;53.196;5.980;2023-01-16T01:53:10;11.25;;;4.57;;
54823;SDS011;40724;53.196;5.980;2023-01-16T01:55:38;5.38;;;4.00;;
54823;SDS011;40724;53.196;5.980;2023-01-16T01:58:04;12.48;;;4.57;;
54823;SDS011;40724;53.196;5.980;2023-01-16T02:00:30;9.43;;;4.75;;
54823;SDS011;40724;53.196;5.980;2023-01-16T02:03:02;8.30;;;4.53;;
54823;SDS011;40724;53.196;5.980;2023-01-16T02:05:31;8.00;;;4.22;;
54823;SDS011;40724;53.196;5.980;2023-01-16T02:07:58;8.07;;;4.82;;
54823;SDS011;40724;53.196;5.980;2023-01-16T02:13:01;10.73;;;4.32;;
54823;SDS011;40724;53.196;5.980;2023-01-16T02:15:27;5.80;;;4.30;;
54823;SDS011;40724;53.196;5.980;2023-01-16T02:17:53;12.50;;;4.75;;
54823;SDS011;40724;53.196;5.980;2023-01-16T02:20:46;9.10;;;4.45;;
54823;SDS011;40724;53.196;5.980;2023-01-16T02:36:56;6.90;;;4.22;;
54823;SDS011;40724;53.196;5.980;2023-01-16T02:47:09;4.77;;;3.07;;
54823;SDS011;40724;53.196;5.980;2023-01-16T02:49:40;6.47;;;3.55;;
54823;SDS011;40724;53.196;5.980;2023-01-16T02:52:11;6.75;;;4.50;;
54823;SDS011;40724;53.196;5.980;2023-01-16T02:54:47;9.38;;;4.07;;
54823;SDS011;40724;53.196;5.980;2023-01-16T02:57:18;5.95;;;3.88;;
54823;SDS011;40724;53.196;5.980;2023-01-16T02:59:44;4.43;;;3.20;;
54823;SDS011;40724;53.196;5.980;2023-01-16T03:02:11;6.60;;;4.05;;
54823;SDS011;40724;53.196;5.980;2023-01-16T03:04:45;13.25;;;4.18;;
54823;SDS011;40724;53.196;5.980;2023-01-16T03:12:40;6.72;;;4.60;;
54823;SDS011;40724;53.196;5.980;2023-01-16T03:25:58;7.28;;;5.45;;
54823;SDS011;40724;53.196;5.980;2023-01-16T03:30:53;15.70;;;5.20;;
54823;SDS011;40724;53.196;5.980;2023-01-16T03:36:10;9.68;;;4.82;;
54823;SDS011;40724;53.196;5.980;2023-01-16T03:38:38;9.15;;;4.80;;
54823;SDS011;40724;53.196;5.980;2023-01-16T03:41:08;7.95;;;5.45;;
54823;SDS011;40724;53.196;5.980;2023-01-16T03:43:35;7.68;;;4.90;;
54823;SDS011;40724;53.196;5.980;2023-01-16T03:46:07;10.15;;;6.88;;
54823;SDS011;40724;53.196;5.980;2023-01-16T03:48:43;10.30;;;6.22;;
54823;SDS011;40724;53.196;5.980;2023-01-16T03:51:15;7.68;;;6.32;;
54823;SDS011;40724;53.196;5.980;2023-01-16T03:53:45;10.63;;;6.60;;
54823;SDS011;40724;53.196;5.980;2023-01-16T03:56:15;10.27;;;6.60;;
54823;SDS011;40724;53.196;5.980;2023-01-16T03:58:45;8.73;;;5.90;;
54823;SDS011;40724;53.196;5.980;2023-01-16T04:04:32;11.25;;;7.13;;
54823;SDS011;40724;53.196;5.980;2023-01-16T04:06:57;14.65;;;7.63;;
54823;SDS011;40724;53.196;5.980;2023-01-16T04:09:31;10.27;;;6.55;;
54823;SDS011;40724;53.196;5.980;2023-01-16T04:11:59;12.88;;;6.68;;
54823;SDS011;40724;53.196;5.980;2023-01-16T04:14:26;9.75;;;6.40;;
54823;SDS011;40724;53.196;5.980;2023-01-16T04:16:53;8.30;;;6.43;;
54823;SDS011;40724;53.196;5.980;2023-01-16T04:19:20;11.82;;;6.47;;
54823;SDS011;40724;53.196;5.980;2023-01-16T04:21:47;10.15;;;6.95;;
54823;SDS011;40724;53.196;5.980;2023-01-16T04:24:14;9.88;;;6.78;;
54823;SDS011;40724;53.196;5.980;2023-01-16T04:26:40;8.60;;;6.43;;
54823;SDS011;40724;53.196;5.980;2023-01-16T04:29:06;10.90;;;6.88;;
54823;SDS011;40724;53.196;5.980;2023-01-16T04:31:32;13.10;;;7.13;;
54823;SDS011;40724;53.196;5.980;2023-01-16T04:33:58;12.43;;;7.30;;
54823;SDS011;40724;53.196;5.980;2023-01-16T04:36:25;14.35;;;6.93;;
54823;SDS011;40724;53.196;5.980;2023-01-16T04:38:51;11.68;;;6.72;;
54823;SDS011;40724;53.196;5.980;2023-01-16T04:41:17;13.55;;;8.48;;
54823;SDS011;40724;53.196;5.980;2023-01-16T04:44:01;12.18;;;7.85;;
54823;SDS011;40724;53.196;5.980;2023-01-16T04:46:27;14.00;;;8.95;;
54823;SDS011;40724;53.196;5.980;2023-01-16T04:48:53;14.13;;;8.82;;
54823;SDS011;40724;53.196;5.980;2023-01-16T04:51:19;16.27;;;9.70;;
54823;SDS011;40724;53.196;5.980;2023-01-16T04:53:45;12.50;;;8.55;;
54823;SDS011;40724;53.196;5.980;2023-01-16T04:56:11;14.43;;;9.63;;
54823;SDS011;40724;53.196;5.980;2023-01-16T04:58:38;13.05;;;9.13;;
54823;SDS011;40724;53.196;5.980;2023-01-16T05:01:04;12.93;;;8.95;;
54823;SDS011;40724;53.196;5.980;2023-01-16T05:03:30;12.27;;;9.75;;
54823;SDS011;40724;53.196;5.980;2023-01-16T05:05:56;17.88;;;9.55;;
54823;SDS011;40724;53.196;5.980;2023-01-16T05:08:22;15.18;;;9.10;;
54823;SDS011;40724;53.196;5.980;2023-01-16T05:10:53;16.52;;;9.35;;
54823;SDS011;40724;53.196;5.980;2023-01-16T05:13:19;14.57;;;9.23;;
54823;SDS011;40724;53.196;5.980;2023-01-16T05:15:45;16.52;;;8.55;;
54823;SDS011;40724;53.196;5.980;2023-01-16T05:18:12;12.18;;;8.73;;
54823;SDS011;40724;53.196;5.980;2023-01-16T05:20:38;18.08;;;11.63;;
54823;SDS011;40724;53.196;5.980;2023-01-16T05:23:05;16.38;;;9.23;;
54823;SDS011;40724;53.196;5.980;2023-01-16T05:25:31;20.20;;;10.25;;
54823;SDS011;40724;53.196;5.980;2023-01-16T05:27:57;16.90;;;10.10;;
54823;SDS011;40724;53.196;5.980;2023-01-16T05:30:23;18.10;;;10.52;;
54823;SDS011;40724;53.196;5.980;2023-01-16T05:32:49;13.57;;;9.02;;
54823;SDS011;40724;53.196;5.980;2023-01-16T05:35:15;17.15;;;11.23;;
54823;SDS011;40724;53.196;5.980;2023-01-16T05:37:42;17.15;;;9.77;;
54823;SDS011;40724;53.196;5.980;2023-01-16T05:40:09;17.50;;;10.70;;
54823;SDS011;40724;53.196;5.980;2023-01-16T05:42:35;16.17;;;10.38;;
54823;SDS011;40724;53.196;5.980;2023-01-16T05:45:02;15.68;;;9.90;;
54823;SDS011;40724;53.196;5.980;2023-01-16T05:47:28;17.30;;;10.43;;
54823;SDS011;40724;53.196;5.980;2023-01-16T05:49:54;14.75;;;9.65;;
54823;SDS011;40724;53.196;5.980;2023-01-16T05:52:24;15.90;;;11.20;;
54823;SDS011;40724;53.196;5.980;2023-01-16T05:54:50;17.08;;;10.57;;
54823;SDS011;40724;53.196;5.980;2023-01-16T05:57:17;16.95;;;12.05;;
54823;SDS011;40724;53.196;5.980;2023-01-16T05:59:43;17.75;;;10.65;;
54823;SDS011;40724;53.196;5.980;2023-01-16T06:02:11;16.85;;;10.85;;
54823;SDS011;40724;53.196;5.980;2023-01-16T06:04:37;15.40;;;10.15;;
54823;SDS011;40724;53.196;5.980;2023-01-16T06:07:03;17.88;;;10.77;;
54823;SDS011;40724;53.196;5.980;2023-01-16T06:09:29;14.98;;;10.75;;
54823;SDS011;40724;53.196;5.980;2023-01-16T06:11:56;18.35;;;11.23;;
54823;SDS011;40724;53.196;5.980;2023-01-16T06:14:22;16.83;;;10.65;;
54823;SDS011;40724;53.196;5.980;2023-01-16T06:16:48;19.90;;;10.52;;
54823;SDS011;40724;53.196;5.980;2023-01-16T06:19:15;17.88;;;11.20;;
54823;SDS011;40724;53.196;5.980;2023-01-16T06:21:41;18.60;;;11.00;;
54823;SDS011;40724;53.196;5.980;2023-01-16T06:24:07;15.10;;;10.68;;
54823;SDS011;40724;53.196;5.980;2023-01-16T06:26:33;21.83;;;11.63;;
54823;SDS011;40724;53.196;5.980;2023-01-16T06:28:59;17.33;;;10.75;;
54823;SDS011;40724;53.196;5.980;2023-01-16T06:31:25;16.15;;;10.23;;
54823;SDS011;40724;53.196;5.980;2023-01-16T06:33:51;15.55;;;10.65;;
54823;SDS011;40724;53.196;5.980;2023-01-16T06:36:17;13.82;;;9.25;;
54823;SDS011;40724;53.196;5.980;2023-01-16T06:38:44;16.40;;;10.07;;
54823;SDS011;40724;53.196;5.980;2023-01-16T06:41:10;16.33;;;9.32;;
54823;SDS011;40724;53.196;5.980;2023-01-16T06:43:36;22.30;;;10.73;;
54823;SDS011;40724;53.196;5.980;2023-01-16T06:46:02;18.95;;;10.75;;
54823;SDS011;40724;53.196;5.980;2023-01-16T06:48:28;18.58;;;9.57;;
54823;SDS011;40724;53.196;5.980;2023-01-16T06:50:56;21.83;;;10.80;;
54823;SDS011;40724;53.196;5.980;2023-01-16T06:53:24;15.50;;;9.40;;
54823;SDS011;40724;53.196;5.980;2023-01-16T06:55:50;16.77;;;10.45;;
54823;SDS011;40724;53.196;5.980;2023-01-16T06:58:16;16.77;;;10.80;;
54823;SDS011;40724;53.196;5.980;2023-01-16T07:00:43;13.82;;;9.45;;
54823;SDS011;40724;53.196;5.980;2023-01-16T07:03:09;16.20;;;10.45;;
54823;SDS011;40724;53.196;5.980;2023-01-16T07:05:37;15.23;;;9.52;;
54823;SDS011;40724;53.196;5.980;2023-01-16T07:08:04;14.88;;;9.48;;
54823;SDS011;40724;53.196;5.980;2023-01-16T07:10:30;16.83;;;10.73;;
54823;SDS011;40724;53.196;5.980;2023-01-16T07:12:56;17.05;;;10.35;;
54823;SDS011;40724;53.196;5.980;2023-01-16T07:15:22;19.25;;;9.98;;
54823;SDS011;40724;53.196;5.980;2023-01-16T07:18:10;14.35;;;8.88;;
54823;SDS011;40724;53.196;5.980;2023-01-16T07:20:56;13.85;;;7.95;;
54823;SDS011;40724;53.196;5.980;2023-01-16T07:23:56;14.40;;;9.18;;
54823;SDS011;40724;53.196;5.980;2023-01-16T07:26:23;11.88;;;8.32;;
54823;SDS011;40724;53.196;5.980;2023-01-16T07:28:49;14.05;;;7.45;;
54823;SDS011;40724;53.196;5.980;2023-01-16T07:31:16;14.93;;;7.88;;
54823;SDS011;40724;53.196;5.980;2023-01-16T07:33:43;14.63;;;7.85;;
54823;SDS011;40724;53.196;5.980;2023-01-16T07:36:09;11.40;;;7.22;;
54823;SDS011;40724;53.196;5.980;2023-01-16T07:38:35;12.35;;;7.90;;
54823;SDS011;40724;53.196;5.980;2023-01-16T07:41:01;11.18;;;7.50;;
54823;SDS011;40724;53.196;5.980;2023-01-16T07:43:27;16.17;;;7.03;;
54823;SDS011;40724;53.196;5.980;2023-01-16T07:45:53;11.00;;;7.63;;
54823;SDS011;40724;53.196;5.980;2023-01-16T07:48:20;13.68;;;6.10;;
54823;SDS011;40724;53.196;5.980;2023-01-16T07:50:53;10.65;;;6.25;;
54823;SDS011;40724;53.196;5.980;2023-01-16T07:53:20;10.30;;;6.95;;
54823;SDS011;40724;53.196;5.980;2023-01-16T07:55:50;10.75;;;5.72;;
54823;SDS011;40724;53.196;5.980;2023-01-16T07:58:17;10.18;;;7.00;;
54823;SDS011;40724;53.196;5.980;2023-01-16T08:00:43;11.52;;;6.45;;
54823;SDS011;40724;53.196;5.980;2023-01-16T08:03:10;10.32;;;7.20;;
54823;SDS011;40724;53.196;5.980;2023-01-16T08:05:37;13.63;;;6.65;;
54823;SDS011;40724;53.196;5.980;2023-01-16T08:08:03;17.75;;;7.65;;
54823;SDS011;40724;53.196;5.980;2023-01-16T08:10:29;9.68;;;7.10;;
54823;SDS011;40724;53.196;5.980;2023-01-16T08:12:56;11.95;;;6.43;;
54823;SDS011;40724;53.196;5.980;2023-01-16T08:15:22;10.82;;;6.30;;
54823;SDS011;40724;53.196;5.980;2023-01-16T08:17:48;12.82;;;6.65;;
54823;SDS011;40724;53.196;5.980;2023-01-16T08:20:14;11.48;;;5.82;;
54823;SDS011;40724;53.196;5.980;2023-01-16T08:22:41;9.82;;;6.05;;
54823;SDS011;40724;53.196;5.980;2023-01-16T08:25:08;6.97;;;4.47;;
54823;SDS011;40724;53.196;5.980;2023-01-16T08:27:34;8.75;;;5.60;;
54823;SDS011;40724;53.196;5.980;2023-01-16T08:30:01;11.25;;;6.20;;
54823;SDS011;40724;53.196;5.980;2023-01-16T08:32:28;9.77;;;5.50;;
54823;SDS011;40724;53.196;5.980;2023-01-16T08:34:54;10.07;;;5.40;;
54823;SDS011;40724;53.196;5.980;2023-01-16T08:37:20;12.50;;;5.20;;
54823;SDS011;40724;53.196;5.980;2023-01-16T08:39:46;12.02;;;5.63;;
54823;SDS011;40724;53.196;5.980;2023-01-16T08:42:12;9.95;;;5.85;;
54823;SDS011;40724;53.196;5.980;2023-01-16T08:44:57;9.95;;;4.15;;
54823;SDS011;40724;53.196;5.980;2023-01-16T08:47:42;8.63;;;4.72;;
54823;SDS011;40724;53.196;5.980;2023-01-16T08:50:27;6.30;;;4.63;;
54823;SDS011;40724;53.196;5.980;2023-01-16T08:53:12;11.77;;;5.60;;
54823;SDS011;40724;53.196;5.980;2023-01-16T08:55:38;10.63;;;4.72;;
54823;SDS011;40724;53.196;5.980;2023-01-16T08:58:05;11.50;;;5.10;;
54823;SDS011;40724;53.196;5.980;2023-01-16T09:00:31;8.20;;;4.15;;
54823;SDS011;40724;53.196;5.980;2023-01-16T09:02:57;8.88;;;4.85;;
54823;SDS011;40724;53.196;5.980;2023-01-16T09:05:24;15.27;;;6.20;;
54823;SDS011;40724;53.196;5.980;2023-01-16T09:07:51;8.45;;;4.75;;
54823;SDS011;40724;53.196;5.980;2023-01-16T09:10:17;15.85;;;5.28;;
54823;SDS011;40724;53.196;5.980;2023-01-16T09:12:43;11.35;;;4.63;;
54823;SDS011;40724;53.196;5.980;2023-01-16T09:15:28;12.95;;;5.03;;
54823;SDS011;40724;53.196;5.980;2023-01-16T09:17:54;9.23;;;5.47;;
54823;SDS011;40724;53.196;5.980;2023-01-16T09:20:20;9.85;;;4.35;;
54823;SDS011;40724;53.196;5.980;2023-01-16T09:22:47;7.60;;;4.30;;
54823;SDS011;40724;53.196;5.980;2023-01-16T09:25:13;12.18;;;4.53;;
54823;SDS011;40724;53.196;5.980;2023-01-16T09:27:39;11.27;;;4.90;;
54823;SDS011;40724;53.196;5.980;2023-01-16T09:30:05;11.77;;;5.18;;
54823;SDS011;40724;53.196;5.980;2023-01-16T09:32:32;9.02;;;4.50;;
54823;SDS011;40724;53.196;5.980;2023-01-16T09:34:59;7.95;;;4.35;;
54823;SDS011;40724;53.196;5.980;2023-01-16T09:37:25;10.18;;;5.03;;
54823;SDS011;40724;53.196;5.980;2023-01-16T09:39:51;8.90;;;4.20;;
54823;SDS011;40724;53.196;5.980;2023-01-16T09:45:17;6.75;;;4.55;;
54823;SDS011;40724;53.196;5.980;2023-01-16T09:47:45;5.72;;;4.20;;
54823;SDS011;40724;53.196;5.980;2023-01-16T09:50:16;8.00;;;4.50;;
54823;SDS011;40724;53.196;5.980;2023-01-16T09:52:44;8.18;;;4.55;;
54823;SDS011;40724;53.196;5.980;2023-01-16T09:55:40;11.45;;;4.90;;
54823;SDS011;40724;53.196;5.980;2023-01-16T09:58:25;6.75;;;4.22;;
54823;SDS011;40724;53.196;5.980;2023-01-16T10:03:34;6.20;;;3.85;;
54823;SDS011;40724;53.196;5.980;2023-01-16T10:06:22;5.88;;;4.07;;
54823;SDS011;40724;53.196;5.980;2023-01-16T10:08:53;9.25;;;4.25;;
54823;SDS011;40724;53.196;5.980;2023-01-16T10:12:07;6.15;;;4.25;;
54823;SDS011;40724;53.196;5.980;2023-01-16T10:19:19;5.45;;;3.78;;
54823;SDS011;40724;53.196;5.980;2023-01-16T10:24:21;6.05;;;3.75;;
54823;SDS011;40724;53.196;5.980;2023-01-16T10:29:39;8.27;;;3.47;;
54823;SDS011;40724;53.196;5.980;2023-01-16T10:32:14;5.45;;;3.58;;
54823;SDS011;40724;53.196;5.980;2023-01-16T10:37:31;5.47;;;3.35;;
54823;SDS011;40724;53.196;5.980;2023-01-16T10:40:04;6.40;;;3.60;;
54823;SDS011;40724;53.196;5.980;2023-01-16T10:42:33;6.18;;;3.65;;
54823;SDS011;40724;53.196;5.980;2023-01-16T10:45:20;6.55;;;3.20;;
54823;SDS011;40724;53.196;5.980;2023-01-16T10:48:09;9.05;;;2.85;;
54823;SDS011;40724;53.196;5.980;2023-01-16T10:50:55;7.15;;;3.92;;
54823;SDS011;40724;53.196;5.980;2023-01-16T10:53:21;5.93;;;3.90;;
54823;SDS011;40724;53.196;5.980;2023-01-16T10:55:48;4.80;;;2.95;;
54823;SDS011;40724;53.196;5.980;2023-01-16T10:58:29;5.25;;;3.65;;
54823;SDS011;40724;53.196;5.980;2023-01-16T11:01:17;3.88;;;2.53;;
54823;SDS011;40724;53.196;5.980;2023-01-16T11:06:17;7.80;;;2.67;;
54823;SDS011;40724;53.196;5.980;2023-01-16T11:08:47;4.97;;;1.88;;
54823;SDS011;40724;53.196;5.980;2023-01-16T11:11:14;6.15;;;2.28;;
54823;SDS011;40724;53.196;5.980;2023-01-16T11:13:59;2.42;;;1.30;;
54823;SDS011;40724;53.196;5.980;2023-01-16T11:16:44;2.22;;;1.45;;
54823;SDS011;40724;53.196;5.980;2023-01-16T11:19:29;1.88;;;1.35;;
54823;SDS011;40724;53.196;5.980;2023-01-16T11:22:09;2.70;;;1.60;;
54823;SDS011;40724;53.196;5.980;2023-01-16T11:24:45;2.17;;;1.13;;
54823;SDS011;40724;53.196;5.980;2023-01-16T11:27:13;2.65;;;1.20;;
54823;SDS011;40724;53.196;5.980;2023-01-16T11:29:41;1.67;;;1.45;;
54823;SDS011;40724;53.196;5.980;2023-01-16T11:32:09;2.30;;;1.35;;
54823;SDS011;40724;53.196;5.980;2023-01-16T11:34:37;2.65;;;1.15;;
54823;SDS011;40724;53.196;5.980;2023-01-16T11:37:05;2.88;;;1.63;;
54823;SDS011;40724;53.196;5.980;2023-01-16T11:39:32;2.20;;;1.30;;
54823;SDS011;40724;53.196;5.980;2023-01-16T11:42:02;2.47;;;1.08;;
54823;SDS011;40724;53.196;5.980;2023-01-16T11:44:48;3.40;;;1.65;;
54823;SDS011;40724;53.196;5.980;2023-01-16T11:47:39;2.17;;;1.10;;
54823;SDS011;40724;53.196;5.980;2023-01-16T11:50:19;2.45;;;1.58;;
54823;SDS011;40724;53.196;5.980;2023-01-16T11:52:46;1.52;;;1.08;;
54823;SDS011;40724;53.196;5.980;2023-01-16T11:55:13;0.90;;;0.82;;
54823;SDS011;40724;53.196;5.980;2023-01-16T11:57:45;2.60;;;1.10;;
54823;SDS011;40724;53.196;5.980;2023-01-16T12:08:35;2.10;;;1.50;;
54823;SDS011;40724;53.196;5.980;2023-01-16T12:11:05;1.58;;;0.90;;
54823;SDS011;40724;53.196;5.980;2023-01-16T12:13:38;2.15;;;1.73;;
54823;SDS011;40724;53.196;5.980;2023-01-16T12:19:08;2.05;;;1.50;;
54823;SDS011;40724;53.196;5.980;2023-01-16T12:21:43;3.20;;;1.60;;
54823;SDS011;40724;53.196;5.980;2023-01-16T12:27:08;2.92;;;1.40;;
54823;SDS011;40724;53.196;5.980;2023-01-16T12:29:42;1.58;;;1.08;;
54823;SDS011;40724;53.196;5.980;2023-01-16T12:42:34;5.13;;;1.90;;
54823;SDS011;40724;53.196;5.980;2023-01-16T12:45:27;2.45;;;1.75;;
54823;SDS011;40724;53.196;5.980;2023-01-16T12:55:37;2.58;;;1.98;;
54823;SDS011;40724;53.196;5.980;2023-01-16T12:58:11;2.70;;;1.98;;
54823;SDS011;40724;53.196;5.980;2023-01-16T13:00:54;6.00;;;2.38;;
54823;SDS011;40724;53.196;5.980;2023-01-16T13:03:25;3.42;;;2.15;;
54823;SDS011;40724;53.196;5.980;2023-01-16T13:05:53;4.07;;;2.30;;
54823;SDS011;40724;53.196;5.980;2023-01-16T13:08:22;3.25;;;2.22;;
54823;SDS011;40724;53.196;5.980;2023-01-16T13:10:50;2.70;;;2.28;;
54823;SDS011;40724;53.196;5.980;2023-01-16T13:13:37;4.22;;;2.28;;
54823;SDS011;40724;53.196;5.980;2023-01-16T13:18:58;3.17;;;2.60;;
54823;SDS011;40724;53.196;5.980;2023-01-16T13:21:29;4.68;;;3.15;;
54823;SDS011;40724;53.196;5.980;2023-01-16T13:26:23;4.55;;;3.22;;
54823;SDS011;40724;53.196;5.980;2023-01-16T13:33:46;3.72;;;2.78;;
54823;SDS011;40724;53.196;5.980;2023-01-16T13:41:20;7.53;;;3.88;;
54823;SDS011;40724;53.196;5.980;2023-01-16T13:46:34;5.60;;;3.80;;
54823;SDS011;40724;53.196;5.980;2023-01-16T13:49:01;4.88;;;3.97;;
54823;SDS011;40724;53.196;5.980;2023-01-16T13:51:28;4.43;;;3.42;;
54823;SDS011;40724;53.196;5.980;2023-01-16T13:53:55;6.75;;;3.38;;
54823;SDS011;40724;53.196;5.980;2023-01-16T13:56:24;3.50;;;3.10;;
54823;SDS011;40724;53.196;5.980;2023-01-16T13:59:00;4.43;;;2.70;;
54823;SDS011;40724;53.196;5.980;2023-01-16T14:04:10;4.05;;;2.80;;
54823;SDS011;40724;53.196;5.980;2023-01-16T14:12:32;5.05;;;3.28;;
54823;SDS011;40724;53.196;5.980;2023-01-16T14:15:15;4.68;;;2.90;;
54823;SDS011;40724;53.196;5.980;2023-01-16T14:18:01;3.50;;;3.03;;
54823;SDS011;40724;53.196;5.980;2023-01-16T14:21:02;4.82;;;3.20;;
54823;SDS011;40724;53.196;5.980;2023-01-16T14:26:05;3.92;;;2.90;;
54823;SDS011;40724;53.196;5.980;2023-01-16T14:28:32;3.63;;;3.05;;
54823;SDS011;40724;53.196;5.980;2023-01-16T14:30:59;3.92;;;2.78;;
54823;SDS011;40724;53.196;5.980;2023-01-16T14:33:26;4.80;;;3.13;;
54823;SDS011;40724;53.196;5.980;2023-01-16T14:35:53;3.83;;;3.28;;
54823;SDS011;40724;53.196;5.980;2023-01-16T14:38:21;5.63;;;3.20;;
54823;SDS011;40724;53.196;5.980;2023-01-16T14:40:53;4.80;;;3.20;;
54823;SDS011;40724;53.196;5.980;2023-01-16T14:43:42;5.78;;;4.20;;
54823;SDS011;40724;53.196;5.980;2023-01-16T14:46:49;4.53;;;3.90;;
54823;SDS011;40724;53.196;5.980;2023-01-16T14:55:22;4.45;;;3.45;;
54823;SDS011;40724;53.196;5.980;2023-01-16T14:57:49;3.63;;;2.90;;
54823;SDS011;40724;53.196;5.980;2023-01-16T15:00:16;4.32;;;3.35;;
54823;SDS011;40724;53.196;5.980;2023-01-16T15:02:46;8.73;;;5.63;;
54823;SDS011;40724;53.196;5.980;2023-01-16T15:05:20;5.32;;;3.95;;
54823;SDS011;40724;53.196;5.980;2023-01-16T15:07:53;6.10;;;4.25;;
54823;SDS011;40724;53.196;5.980;2023-01-16T15:10:38;5.93;;;3.80;;
54823;SDS011;40724;53.196;5.980;2023-01-16T15:13:12;4.93;;;3.42;;
54823;SDS011;40724;53.196;5.980;2023-01-16T15:15:38;6.72;;;4.15;;
54823;SDS011;40724;53.196;5.980;2023-01-16T15:18:09;5.32;;;4.25;;
54823;SDS011;40724;53.196;5.980;2023-01-16T15:20:59;4.75;;;3.92;;
54823;SDS011;40724;53.196;5.980;2023-01-16T15:23:44;4.93;;;3.97;;
54823;SDS011;40724;53.196;5.980;2023-01-16T15:28:48;8.53;;;5.20;;
54823;SDS011;40724;53.196;5.980;2023-01-16T15:33:42;5.47;;;4.00;;
54823;SDS011;40724;53.196;5.980;2023-01-16T15:38:48;7.07;;;4.68;;
54823;SDS011;40724;53.196;5.980;2023-01-16T15:41:18;7.15;;;5.53;;
54823;SDS011;40724;53.196;5.980;2023-01-16T15:44:08;6.30;;;5.28;;
54823;SDS011;40724;53.196;5.980;2023-01-16T15:46:56;8.70;;;5.60;;
54823;SDS011;40724;53.196;5.980;2023-01-16T15:49:28;7.18;;;5.68;;
54823;SDS011;40724;53.196;5.980;2023-01-16T15:51:57;8.57;;;6.63;;
54823;SDS011;40724;53.196;5.980;2023-01-16T15:54:24;9.93;;;7.38;;
54823;SDS011;40724;53.196;5.980;2023-01-16T15:56:50;8.80;;;7.20;;
54823;SDS011;40724;53.196;5.980;2023-01-16T16:02:16;13.50;;;9.48;;
54823;SDS011;40724;53.196;5.980;2023-01-16T16:04:44;14.27;;;9.60;;
54823;SDS011;40724;53.196;5.980;2023-01-16T16:07:11;11.05;;;8.32;;
54823;SDS011;40724;53.196;5.980;2023-01-16T16:09:38;13.45;;;7.88;;
54823;SDS011;40724;53.196;5.980;2023-01-16T16:12:05;9.77;;;6.75;;
54823;SDS011;40724;53.196;5.980;2023-01-16T16:14:32;11.68;;;7.18;;
54823;SDS011;40724;53.196;5.980;2023-01-16T16:17:25;13.88;;;7.38;;
54823;SDS011;40724;53.196;5.980;2023-01-16T16:22:51;6.88;;;5.68;;
54823;SDS011;40724;53.196;5.980;2023-01-16T16:25:24;7.28;;;5.97;;
54823;SDS011;40724;53.196;5.980;2023-01-16T16:27:51;7.63;;;5.78;;
54823;SDS011;40724;53.196;5.980;2023-01-16T16:30:19;6.55;;;5.85;;
54823;SDS011;40724;53.196;5.980;2023-01-16T16:32:47;8.13;;;6.93;;
54823;SDS011;40724;53.196;5.980;2023-01-16T16:35:21;9.82;;;6.63;;
54823;SDS011;40724;53.196;5.980;2023-01-16T16:37:49;7.82;;;5.25;;
54823;SDS011;40724;53.196;5.980;2023-01-16T16:40:15;10.00;;;6.70;;
54823;SDS011;40724;53.196;5.980;2023-01-16T16:47:43;8.80;;;6.32;;
54823;SDS011;40724;53.196;5.980;2023-01-16T16:53:14;10.20;;;7.65;;
54823;SDS011;40724;53.196;5.980;2023-01-16T16:55:41;8.90;;;6.63;;
54823;SDS011;40724;53.196;5.980;2023-01-16T16:58:43;10.93;;;8.30;;
54823;SDS011;40724;53.196;5.980;2023-01-16T17:01:01;13.32;;;10.07;;
54823;SDS011;40724;53.196;5.980;2023-01-16T17:03:27;13.68;;;9.45;;
54823;SDS011;40724;53.196;5.980;2023-01-16T17:05:56;13.80;;;10.15;;
54823;SDS011;40724;53.196;5.980;2023-01-16T17:08:26;13.85;;;9.25;;
54823;SDS011;40724;53.196;5.980;2023-01-16T17:10:53;13.07;;;9.45;;
54823;SDS011;40724;53.196;5.980;2023-01-16T17:13:20;13.00;;;9.70;;
54823;SDS011;40724;53.196;5.980;2023-01-16T17:15:47;12.52;;;9.88;;
54823;SDS011;40724;53.196;5.980;2023-01-16T17:18:13;16.35;;;10.07;;
54823;SDS011;40724;53.196;5.980;2023-01-16T17:20:40;12.13;;;9.70;;
54823;SDS011;40724;53.196;5.980;2023-01-16T17:23:15;10.07;;;8.50;;
54823;SDS011;40724;53.196;5.980;2023-01-16T17:25:42;12.52;;;8.15;;
54823;SDS011;40724;53.196;5.980;2023-01-16T17:28:09;10.43;;;8.95;;
54823;SDS011;40724;53.196;5.980;2023-01-16T17:30:35;11.25;;;8.48;;
54823;SDS011;40724;53.196;5.980;2023-01-16T17:33:03;12.43;;;7.68;;
54823;SDS011;40724;53.196;5.980;2023-01-16T17:35:35;11.27;;;7.43;;
54823;SDS011;40724;53.196;5.980;2023-01-16T17:38:08;9.00;;;6.70;;
54823;SDS011;40724;53.196;5.980;2023-01-16T17:40:35;9.00;;;6.30;;